sensor_id;sensor_type;location;lat;lon;timestamp;temperature;humidity
84067;SHT35;74151;52.134;5.500;2024-03-02T00:01:14;7.40;75.52
84067;SHT35;74151;52.134;5.500;2024-03-02T00:03:50;7.41;75.15
84067;SHT35;74151;52.134;5.500;2024-03-02T00:06:26;7.43;75.42
84067;SHT35;74151;52.134;5.500;2024-03-02T00:09:03;7.46;75.45
84067;SHT35;74151;52.134;5.500;2024-03-02T00:11:36;7.47;75.04
84067;SHT35;74151;52.134;5.500;2024-03-02T00:14:10;7.47;75.16
84067;SHT35;74151;52.134;5.500;2024-03-02T00:16:45;7.50;74.86
84067;SHT35;74151;52.134;5.500;2024-03-02T00:19:21;7.54;75.20
84067;SHT35;74151;52.134;5.500;2024-03-02T00:21:55;7.55;74.71
84067;SHT35;74151;52.134;5.500;2024-03-02T00:24:33;7.55;74.81
84067;SHT35;74151;52.134;5.500;2024-03-02T00:27:07;7.56;74.68
84067;SHT35;74151;52.134;5.500;2024-03-02T00:29:41;7.57;75.12
84067;SHT35;74151;52.134;5.500;2024-03-02T00:32:17;7.57;75.34
84067;SHT35;74151;52.134;5.500;2024-03-02T00:34:53;7.57;75.24
84067;SHT35;74151;52.134;5.500;2024-03-02T00:37:27;7.57;75.51
84067;SHT35;74151;52.134;5.500;2024-03-02T00:39:58;7.59;75.68
84067;SHT35;74151;52.134;5.500;2024-03-02T00:42:33;7.60;75.64
84067;SHT35;74151;52.134;5.500;2024-03-02T00:45:10;7.59;76.55
84067;SHT35;74151;52.134;5.500;2024-03-02T00:47:44;7.57;76.31
84067;SHT35;74151;52.134;5.500;2024-03-02T00:50:17;7.55;77.03
84067;SHT35;74151;52.134;5.500;2024-03-02T00:53:02;7.50;77.55
84067;SHT35;74151;52.134;5.500;2024-03-02T00:55:39;7.53;77.61
84067;SHT35;74151;52.134;5.500;2024-03-02T00:58:17;7.58;77.92
84067;SHT35;74151;52.134;5.500;2024-03-02T01:00:48;7.66;79.17
84067;SHT35;74151;52.134;5.500;2024-03-02T01:03:22;7.71;79.32
84067;SHT35;74151;52.134;5.500;2024-03-02T01:05:53;7.72;78.59
84067;SHT35;74151;52.134;5.500;2024-03-02T01:08:31;7.75;79.29
84067;SHT35;74151;52.134;5.500;2024-03-02T01:11:05;7.74;79.19
84067;SHT35;74151;52.134;5.500;2024-03-02T01:13:43;7.75;79.30
84067;SHT35;74151;52.134;5.500;2024-03-02T01:16:19;7.76;78.97
84067;SHT35;74151;52.134;5.500;2024-03-02T01:18:52;7.72;79.00
84067;SHT35;74151;52.134;5.500;2024-03-02T01:21:27;7.71;79.12
84067;SHT35;74151;52.134;5.500;2024-03-02T01:24:00;7.58;79.32
84067;SHT35;74151;52.134;5.500;2024-03-02T01:26:32;7.54;80.49
84067;SHT35;74151;52.134;5.500;2024-03-02T01:29:03;7.46;81.24
84067;SHT35;74151;52.134;5.500;2024-03-02T01:31:36;7.38;81.50
84067;SHT35;74151;52.134;5.500;2024-03-02T01:34:10;7.28;82.77
84067;SHT35;74151;52.134;5.500;2024-03-02T01:36:47;7.21;83.34
84067;SHT35;74151;52.134;5.500;2024-03-02T01:39:20;7.16;83.19
84067;SHT35;74151;52.134;5.500;2024-03-02T01:41:51;7.10;84.07
84067;SHT35;74151;52.134;5.500;2024-03-02T01:44:29;7.04;83.36
84067;SHT35;74151;52.134;5.500;2024-03-02T01:47:03;6.99;84.12
84067;SHT35;74151;52.134;5.500;2024-03-02T01:49:34;6.95;84.26
84067;SHT35;74151;52.134;5.500;2024-03-02T01:52:12;6.93;84.05
84067;SHT35;74151;52.134;5.500;2024-03-02T01:54:48;6.87;84.70
84067;SHT35;74151;52.134;5.500;2024-03-02T01:57:19;6.84;84.82
84067;SHT35;74151;52.134;5.500;2024-03-02T01:59:53;6.81;84.92
84067;SHT35;74151;52.134;5.500;2024-03-02T02:02:24;6.78;85.32
84067;SHT35;74151;52.134;5.500;2024-03-02T02:04:55;6.77;85.76
84067;SHT35;74151;52.134;5.500;2024-03-02T02:07:31;6.74;85.57
84067;SHT35;74151;52.134;5.500;2024-03-02T02:10:04;6.72;86.02
84067;SHT35;74151;52.134;5.500;2024-03-02T02:12:38;6.68;86.08
84067;SHT35;74151;52.134;5.500;2024-03-02T02:15:29;6.69;86.28
84067;SHT35;74151;52.134;5.500;2024-03-02T02:18:03;6.67;86.71
84067;SHT35;74151;52.134;5.500;2024-03-02T02:20:36;6.68;86.80
84067;SHT35;74151;52.134;5.500;2024-03-02T02:23:10;6.65;86.45
84067;SHT35;74151;52.134;5.500;2024-03-02T02:25:45;6.63;87.35
84067;SHT35;74151;52.134;5.500;2024-03-02T02:28:23;6.62;87.79
84067;SHT35;74151;52.134;5.500;2024-03-02T02:30:57;6.61;87.58
84067;SHT35;74151;52.134;5.500;2024-03-02T02:33:32;6.60;88.04
84067;SHT35;74151;52.134;5.500;2024-03-02T02:36:07;6.60;88.63
84067;SHT35;74151;52.134;5.500;2024-03-02T02:38:46;6.55;88.48
84067;SHT35;74151;52.134;5.500;2024-03-02T02:41:20;6.51;89.19
84067;SHT35;74151;52.134;5.500;2024-03-02T02:43:54;6.49;89.14
84067;SHT35;74151;52.134;5.500;2024-03-02T02:46:28;6.43;89.48
84067;SHT35;74151;52.134;5.500;2024-03-02T02:49:01;6.42;89.75
84067;SHT35;74151;52.134;5.500;2024-03-02T02:51:35;6.42;89.37
84067;SHT35;74151;52.134;5.500;2024-03-02T02:54:06;6.42;89.78
84067;SHT35;74151;52.134;5.500;2024-03-02T02:56:39;6.43;89.58
84067;SHT35;74151;52.134;5.500;2024-03-02T02:59:16;6.41;89.29
84067;SHT35;74151;52.134;5.500;2024-03-02T03:01:54;6.39;89.50
84067;SHT35;74151;52.134;5.500;2024-03-02T03:04:27;6.39;89.98
84067;SHT35;74151;52.134;5.500;2024-03-02T03:07:03;6.42;90.11
84067;SHT35;74151;52.134;5.500;2024-03-02T03:09:40;6.43;89.68
84067;SHT35;74151;52.134;5.500;2024-03-02T03:12:11;6.44;89.84
84067;SHT35;74151;52.134;5.500;2024-03-02T03:14:42;6.44;89.77
84067;SHT35;74151;52.134;5.500;2024-03-02T03:17:13;6.41;89.17
84067;SHT35;74151;52.134;5.500;2024-03-02T03:19:44;6.39;88.44
84067;SHT35;74151;52.134;5.500;2024-03-02T03:22:18;6.39;88.75
84067;SHT35;74151;52.134;5.500;2024-03-02T03:24:54;6.36;87.93
84067;SHT35;74151;52.134;5.500;2024-03-02T03:27:27;6.36;87.82
84067;SHT35;74151;52.134;5.500;2024-03-02T03:30:06;6.29;88.08
84067;SHT35;74151;52.134;5.500;2024-03-02T03:32:40;6.26;87.42
84067;SHT35;74151;52.134;5.500;2024-03-02T03:35:14;6.22;87.86
84067;SHT35;74151;52.134;5.500;2024-03-02T03:37:47;6.17;88.50
84067;SHT35;74151;52.134;5.500;2024-03-02T03:40:23;6.14;88.42
84067;SHT35;74151;52.134;5.500;2024-03-02T03:42:59;6.12;88.85
84067;SHT35;74151;52.134;5.500;2024-03-02T03:45:32;6.10;89.07
84067;SHT35;74151;52.134;5.500;2024-03-02T03:48:11;6.08;88.95
84067;SHT35;74151;52.134;5.500;2024-03-02T03:50:44;6.06;88.77
84067;SHT35;74151;52.134;5.500;2024-03-02T03:53:18;6.05;88.90
84067;SHT35;74151;52.134;5.500;2024-03-02T03:55:56;6.02;89.00
84067;SHT35;74151;52.134;5.500;2024-03-02T03:58:27;5.99;89.07
84067;SHT35;74151;52.134;5.500;2024-03-02T04:01:05;5.99;89.48
84067;SHT35;74151;52.134;5.500;2024-03-02T04:03:38;5.97;89.60
84067;SHT35;74151;52.134;5.500;2024-03-02T04:06:12;5.96;89.28
84067;SHT35;74151;52.134;5.500;2024-03-02T04:08:50;5.95;89.24
84067;SHT35;74151;52.134;5.500;2024-03-02T04:11:22;5.94;88.85
84067;SHT35;74151;52.134;5.500;2024-03-02T04:13:55;5.90;89.12
84067;SHT35;74151;52.134;5.500;2024-03-02T04:16:31;5.90;89.75
84067;SHT35;74151;52.134;5.500;2024-03-02T04:19:04;5.92;89.54
84067;SHT35;74151;52.134;5.500;2024-03-02T04:21:35;5.93;89.37
84067;SHT35;74151;52.134;5.500;2024-03-02T04:24:11;5.95;88.68
84067;SHT35;74151;52.134;5.500;2024-03-02T04:26:45;5.96;88.86
84067;SHT35;74151;52.134;5.500;2024-03-02T04:29:16;5.97;88.07
84067;SHT35;74151;52.134;5.500;2024-03-02T04:31:50;5.97;88.56
84067;SHT35;74151;52.134;5.500;2024-03-02T04:34:21;5.98;88.42
84067;SHT35;74151;52.134;5.500;2024-03-02T04:36:54;5.98;87.48
84067;SHT35;74151;52.134;5.500;2024-03-02T04:39:31;5.99;87.49
84067;SHT35;74151;52.134;5.500;2024-03-02T04:42:05;5.99;87.36
84067;SHT35;74151;52.134;5.500;2024-03-02T04:44:36;5.99;87.02
84067;SHT35;74151;52.134;5.500;2024-03-02T04:47:12;5.99;86.45
84067;SHT35;74151;52.134;5.500;2024-03-02T04:49:48;5.98;86.23
84067;SHT35;74151;52.134;5.500;2024-03-02T04:52:19;6.01;86.86
84067;SHT35;74151;52.134;5.500;2024-03-02T04:54:50;6.01;86.65
84067;SHT35;74151;52.134;5.500;2024-03-02T04:57:42;6.01;86.79
84067;SHT35;74151;52.134;5.500;2024-03-02T05:00:17;6.03;85.82
84067;SHT35;74151;52.134;5.500;2024-03-02T05:02:53;6.03;86.21
84067;SHT35;74151;52.134;5.500;2024-03-02T05:05:24;6.03;85.84
84067;SHT35;74151;52.134;5.500;2024-03-02T05:07:57;6.03;86.38
84067;SHT35;74151;52.134;5.500;2024-03-02T05:10:31;6.05;85.69
84067;SHT35;74151;52.134;5.500;2024-03-02T05:13:09;6.05;85.48
84067;SHT35;74151;52.134;5.500;2024-03-02T05:15:45;6.06;85.52
84067;SHT35;74151;52.134;5.500;2024-03-02T05:18:16;6.06;85.27
84067;SHT35;74151;52.134;5.500;2024-03-02T05:20:52;6.04;84.75
84067;SHT35;74151;52.134;5.500;2024-03-02T05:23:25;6.04;84.08
84067;SHT35;74151;52.134;5.500;2024-03-02T05:26:02;6.03;84.44
84067;SHT35;74151;52.134;5.500;2024-03-02T05:28:33;6.03;83.77
84067;SHT35;74151;52.134;5.500;2024-03-02T05:31:13;6.03;83.26
84067;SHT35;74151;52.134;5.500;2024-03-02T05:33:45;6.03;84.17
84067;SHT35;74151;52.134;5.500;2024-03-02T05:36:21;6.03;82.60
84067;SHT35;74151;52.134;5.500;2024-03-02T05:38:54;6.03;81.87
84067;SHT35;74151;52.134;5.500;2024-03-02T05:41:29;6.03;82.35
84067;SHT35;74151;52.134;5.500;2024-03-02T05:44:01;6.03;82.02
84067;SHT35;74151;52.134;5.500;2024-03-02T05:46:32;6.03;81.98
84067;SHT35;74151;52.134;5.500;2024-03-02T05:49:07;6.03;81.22
84067;SHT35;74151;52.134;5.500;2024-03-02T05:51:38;6.04;81.29
84067;SHT35;74151;52.134;5.500;2024-03-02T05:54:12;5.99;80.60
84067;SHT35;74151;52.134;5.500;2024-03-02T05:56:49;5.95;80.49
84067;SHT35;74151;52.134;5.500;2024-03-02T05:59:23;5.92;80.78
84067;SHT35;74151;52.134;5.500;2024-03-02T06:01:58;5.90;81.19
84067;SHT35;74151;52.134;5.500;2024-03-02T06:04:32;5.86;82.20
84067;SHT35;74151;52.134;5.500;2024-03-02T06:07:03;5.84;82.12
84067;SHT35;74151;52.134;5.500;2024-03-02T06:09:34;5.81;82.38
84067;SHT35;74151;52.134;5.500;2024-03-02T06:12:12;5.79;83.05
84067;SHT35;74151;52.134;5.500;2024-03-02T06:14:45;5.77;83.34
84067;SHT35;74151;52.134;5.500;2024-03-02T06:17:16;5.76;83.52
84067;SHT35;74151;52.134;5.500;2024-03-02T06:19:48;5.74;83.71
84067;SHT35;74151;52.134;5.500;2024-03-02T06:22:21;5.71;83.66
84067;SHT35;74151;52.134;5.500;2024-03-02T06:24:54;5.67;83.83
84067;SHT35;74151;52.134;5.500;2024-03-02T06:27:32;5.63;84.03
84067;SHT35;74151;52.134;5.500;2024-03-02T06:30:04;5.60;84.17
84067;SHT35;74151;52.134;5.500;2024-03-02T06:32:37;5.56;84.32
84067;SHT35;74151;52.134;5.500;2024-03-02T06:35:13;5.51;84.31
84067;SHT35;74151;52.134;5.500;2024-03-02T06:37:45;5.46;84.53
84067;SHT35;74151;52.134;5.500;2024-03-02T06:40:16;5.44;84.67
84067;SHT35;74151;52.134;5.500;2024-03-02T06:42:50;5.41;84.94
84067;SHT35;74151;52.134;5.500;2024-03-02T06:45:25;5.40;84.76
84067;SHT35;74151;52.134;5.500;2024-03-02T06:47:59;5.40;85.21
84067;SHT35;74151;52.134;5.500;2024-03-02T06:50:37;5.42;85.87
84067;SHT35;74151;52.134;5.500;2024-03-02T06:53:10;5.44;85.80
84067;SHT35;74151;52.134;5.500;2024-03-02T06:55:44;5.47;86.11
84067;SHT35;74151;52.134;5.500;2024-03-02T06:58:17;5.49;86.04
84067;SHT35;74151;52.134;5.500;2024-03-02T07:00:49;5.53;86.07
84067;SHT35;74151;52.134;5.500;2024-03-02T07:03:24;5.58;85.31
84067;SHT35;74151;52.134;5.500;2024-03-02T07:05:57;5.58;84.84
84067;SHT35;74151;52.134;5.500;2024-03-02T07:08:29;5.61;85.18
84067;SHT35;74151;52.134;5.500;2024-03-02T07:11:00;5.66;85.17
84067;SHT35;74151;52.134;5.500;2024-03-02T07:13:35;5.74;84.37
84067;SHT35;74151;52.134;5.500;2024-03-02T07:16:06;5.83;84.60
84067;SHT35;74151;52.134;5.500;2024-03-02T07:18:40;5.90;83.68
84067;SHT35;74151;52.134;5.500;2024-03-02T07:21:14;6.01;83.67
84067;SHT35;74151;52.134;5.500;2024-03-02T07:23:47;6.12;82.98
84067;SHT35;74151;52.134;5.500;2024-03-02T07:26:22;6.23;82.68
84067;SHT35;74151;52.134;5.500;2024-03-02T07:28:59;6.37;81.76
84067;SHT35;74151;52.134;5.500;2024-03-02T07:31:30;6.44;81.04
84067;SHT35;74151;52.134;5.500;2024-03-02T07:34:04;6.56;81.40
84067;SHT35;74151;52.134;5.500;2024-03-02T07:36:36;6.67;80.44
84067;SHT35;74151;52.134;5.500;2024-03-02T07:39:10;6.79;80.22
84067;SHT35;74151;52.134;5.500;2024-03-02T07:41:46;6.98;79.53
84067;SHT35;74151;52.134;5.500;2024-03-02T07:44:18;7.18;78.62
84067;SHT35;74151;52.134;5.500;2024-03-02T07:46:53;7.32;78.74
84067;SHT35;74151;52.134;5.500;2024-03-02T07:49:25;7.38;77.23
84067;SHT35;74151;52.134;5.500;2024-03-02T07:51:56;7.41;77.71
84067;SHT35;74151;52.134;5.500;2024-03-02T07:54:29;7.43;77.26
84067;SHT35;74151;52.134;5.500;2024-03-02T07:57:03;7.43;77.81
84067;SHT35;74151;52.134;5.500;2024-03-02T07:59:35;7.45;77.55
84067;SHT35;74151;52.134;5.500;2024-03-02T08:02:08;7.43;78.63
84067;SHT35;74151;52.134;5.500;2024-03-02T08:04:44;7.47;77.72
84067;SHT35;74151;52.134;5.500;2024-03-02T08:07:18;7.49;78.69
84067;SHT35;74151;52.134;5.500;2024-03-02T08:09:52;7.54;78.37
84067;SHT35;74151;52.134;5.500;2024-03-02T08:12:27;7.60;77.26
84067;SHT35;74151;52.134;5.500;2024-03-02T08:15:02;7.64;77.51
84067;SHT35;74151;52.134;5.500;2024-03-02T08:17:37;7.77;77.37
84067;SHT35;74151;52.134;5.500;2024-03-02T08:20:18;7.95;76.23
84067;SHT35;74151;52.134;5.500;2024-03-02T08:22:49;7.99;74.55
84067;SHT35;74151;52.134;5.500;2024-03-02T08:25:24;8.00;74.89
84067;SHT35;74151;52.134;5.500;2024-03-02T08:27:57;8.00;75.04
84067;SHT35;74151;52.134;5.500;2024-03-02T08:30:29;7.99;74.94
84067;SHT35;74151;52.134;5.500;2024-03-02T08:33:09;8.02;74.75
84067;SHT35;74151;52.134;5.500;2024-03-02T08:35:50;8.13;75.15
84067;SHT35;74151;52.134;5.500;2024-03-02T08:38:27;8.60;75.79
84067;SHT35;74151;52.134;5.500;2024-03-02T08:41:03;9.58;70.87
84067;SHT35;74151;52.134;5.500;2024-03-02T08:43:36;10.17;67.56
84067;SHT35;74151;52.134;5.500;2024-03-02T08:46:12;10.48;66.37
84067;SHT35;74151;52.134;5.500;2024-03-02T08:48:44;10.60;65.64
84067;SHT35;74151;52.134;5.500;2024-03-02T08:51:18;10.65;65.38
84067;SHT35;74151;52.134;5.500;2024-03-02T08:53:53;10.66;64.98
84067;SHT35;74151;52.134;5.500;2024-03-02T08:56:25;10.64;64.97
84067;SHT35;74151;52.134;5.500;2024-03-02T08:58:56;10.60;66.70
84067;SHT35;74151;52.134;5.500;2024-03-02T09:01:28;10.66;65.37
84067;SHT35;74151;52.134;5.500;2024-03-02T09:03:59;10.68;64.32
84067;SHT35;74151;52.134;5.500;2024-03-02T09:06:31;10.56;63.51
84067;SHT35;74151;52.134;5.500;2024-03-02T09:09:04;10.39;63.65
84067;SHT35;74151;52.134;5.500;2024-03-02T09:11:41;10.29;64.87
84067;SHT35;74151;52.134;5.500;2024-03-02T09:14:15;10.17;65.37
84067;SHT35;74151;52.134;5.500;2024-03-02T09:16:48;10.10;65.85
84067;SHT35;74151;52.134;5.500;2024-03-02T09:19:22;10.09;68.06
84067;SHT35;74151;52.134;5.500;2024-03-02T09:21:53;10.17;66.92
84067;SHT35;74151;52.134;5.500;2024-03-02T09:24:30;10.18;66.81
84067;SHT35;74151;52.134;5.500;2024-03-02T09:27:04;10.22;66.07
84067;SHT35;74151;52.134;5.500;2024-03-02T09:29:41;10.16;66.23
84067;SHT35;74151;52.134;5.500;2024-03-02T09:32:16;10.10;67.36
84067;SHT35;74151;52.134;5.500;2024-03-02T09:34:53;10.10;67.79
84067;SHT35;74151;52.134;5.500;2024-03-02T09:37:29;10.11;67.39
84067;SHT35;74151;52.134;5.500;2024-03-02T09:40:00;10.14;65.72
84067;SHT35;74151;52.134;5.500;2024-03-02T09:42:39;10.11;65.80
84067;SHT35;74151;52.134;5.500;2024-03-02T09:45:13;10.13;67.61
84067;SHT35;74151;52.134;5.500;2024-03-02T09:47:47;10.06;64.65
84067;SHT35;74151;52.134;5.500;2024-03-02T09:50:19;9.94;64.17
84067;SHT35;74151;52.134;5.500;2024-03-02T09:52:52;9.85;65.94
84067;SHT35;74151;52.134;5.500;2024-03-02T09:55:25;9.83;66.35
84067;SHT35;74151;52.134;5.500;2024-03-02T09:57:59;9.82;66.45
84067;SHT35;74151;52.134;5.500;2024-03-02T10:00:30;9.92;67.28
84067;SHT35;74151;52.134;5.500;2024-03-02T10:03:12;10.02;67.27
84067;SHT35;74151;52.134;5.500;2024-03-02T10:05:45;10.03;63.64
84067;SHT35;74151;52.134;5.500;2024-03-02T10:08:17;10.00;64.30
84067;SHT35;74151;52.134;5.500;2024-03-02T10:10:54;9.88;65.42
84067;SHT35;74151;52.134;5.500;2024-03-02T10:13:28;9.83;64.31
84067;SHT35;74151;52.134;5.500;2024-03-02T10:16:14;9.78;65.03
84067;SHT35;74151;52.134;5.500;2024-03-02T10:18:47;9.74;63.85
84067;SHT35;74151;52.134;5.500;2024-03-02T10:21:18;9.69;65.47
84067;SHT35;74151;52.134;5.500;2024-03-02T10:23:53;9.62;66.92
84067;SHT35;74151;52.134;5.500;2024-03-02T10:26:27;9.69;66.93
84067;SHT35;74151;52.134;5.500;2024-03-02T10:29:02;9.70;68.04
84067;SHT35;74151;52.134;5.500;2024-03-02T10:31:33;9.73;65.41
84067;SHT35;74151;52.134;5.500;2024-03-02T10:34:09;9.78;66.45
84067;SHT35;74151;52.134;5.500;2024-03-02T10:36:45;9.78;63.71
84067;SHT35;74151;52.134;5.500;2024-03-02T10:39:18;9.79;63.05
84067;SHT35;74151;52.134;5.500;2024-03-02T10:41:52;9.81;63.88
84067;SHT35;74151;52.134;5.500;2024-03-02T10:44:30;9.84;63.26
84067;SHT35;74151;52.134;5.500;2024-03-02T10:47:05;9.99;65.47
84067;SHT35;74151;52.134;5.500;2024-03-02T10:49:42;10.11;66.28
84067;SHT35;74151;52.134;5.500;2024-03-02T10:52:15;10.25;64.40
84067;SHT35;74151;52.134;5.500;2024-03-02T10:54:49;10.37;62.57
84067;SHT35;74151;52.134;5.500;2024-03-02T10:57:29;10.43;62.83
84067;SHT35;74151;52.134;5.500;2024-03-02T11:00:11;10.50;63.71
84067;SHT35;74151;52.134;5.500;2024-03-02T11:03:12;10.56;61.71
84067;SHT35;74151;52.134;5.500;2024-03-02T11:05:50;10.57;61.77
84067;SHT35;74151;52.134;5.500;2024-03-02T11:08:28;10.57;60.23
84067;SHT35;74151;52.134;5.500;2024-03-02T11:11:07;10.56;60.89
84067;SHT35;74151;52.134;5.500;2024-03-02T11:13:50;10.55;62.05
84067;SHT35;74151;52.134;5.500;2024-03-02T11:16:37;10.63;62.36
84067;SHT35;74151;52.134;5.500;2024-03-02T11:19:15;10.73;62.52
84067;SHT35;74151;52.134;5.500;2024-03-02T11:21:48;10.88;62.92
84067;SHT35;74151;52.134;5.500;2024-03-02T11:27:10;11.05;58.80
84067;SHT35;74151;52.134;5.500;2024-03-02T11:34:52;11.32;62.47
84067;SHT35;74151;52.134;5.500;2024-03-02T11:37:28;11.45;60.81
84067;SHT35;74151;52.134;5.500;2024-03-02T11:40:03;11.52;58.51
84067;SHT35;74151;52.134;5.500;2024-03-02T11:42:38;11.53;57.17
84067;SHT35;74151;52.134;5.500;2024-03-02T11:45:09;11.54;58.27
84067;SHT35;74151;52.134;5.500;2024-03-02T11:47:40;11.53;57.08
84067;SHT35;74151;52.134;5.500;2024-03-02T11:50:49;11.54;58.27
84067;SHT35;74151;52.134;5.500;2024-03-02T11:53:35;11.63;60.51
84067;SHT35;74151;52.134;5.500;2024-03-02T11:56:16;11.78;58.70
84067;SHT35;74151;52.134;5.500;2024-03-02T11:58:54;11.85;58.05
84067;SHT35;74151;52.134;5.500;2024-03-02T12:01:34;11.90;58.01
84067;SHT35;74151;52.134;5.500;2024-03-02T12:04:10;11.95;58.78
84067;SHT35;74151;52.134;5.500;2024-03-02T12:06:44;12.00;57.02
84067;SHT35;74151;52.134;5.500;2024-03-02T12:09:18;11.98;57.19
84067;SHT35;74151;52.134;5.500;2024-03-02T12:12:10;11.96;57.94
84067;SHT35;74151;52.134;5.500;2024-03-02T12:14:53;11.96;58.68
84067;SHT35;74151;52.134;5.500;2024-03-02T12:17:27;12.02;59.09
84067;SHT35;74151;52.134;5.500;2024-03-02T12:20:00;12.02;56.78
84067;SHT35;74151;52.134;5.500;2024-03-02T12:22:38;12.03;57.40
84067;SHT35;74151;52.134;5.500;2024-03-02T12:25:14;12.07;60.79
84067;SHT35;74151;52.134;5.500;2024-03-02T12:27:50;12.12;57.78
84067;SHT35;74151;52.134;5.500;2024-03-02T12:30:23;12.10;57.00
84067;SHT35;74151;52.134;5.500;2024-03-02T12:33:01;12.15;58.33
84067;SHT35;74151;52.134;5.500;2024-03-02T12:35:38;12.23;56.85
84067;SHT35;74151;52.134;5.500;2024-03-02T12:38:10;12.25;58.26
84067;SHT35;74151;52.134;5.500;2024-03-02T12:40:45;12.30;58.55
84067;SHT35;74151;52.134;5.500;2024-03-02T12:43:21;12.32;59.12
84067;SHT35;74151;52.134;5.500;2024-03-02T12:45:58;12.38;59.52
84067;SHT35;74151;52.134;5.500;2024-03-02T12:48:32;12.42;58.07
84067;SHT35;74151;52.134;5.500;2024-03-02T12:51:05;12.45;58.03
84067;SHT35;74151;52.134;5.500;2024-03-02T12:53:37;12.40;55.81
84067;SHT35;74151;52.134;5.500;2024-03-02T12:56:08;12.32;56.92
84067;SHT35;74151;52.134;5.500;2024-03-02T12:58:45;12.26;56.96
84067;SHT35;74151;52.134;5.500;2024-03-02T13:01:16;12.17;56.74
84067;SHT35;74151;52.134;5.500;2024-03-02T13:03:51;12.10;58.87
84067;SHT35;74151;52.134;5.500;2024-03-02T13:06:29;12.13;59.26
84067;SHT35;74151;52.134;5.500;2024-03-02T13:09:00;12.15;57.77
84067;SHT35;74151;52.134;5.500;2024-03-02T13:11:34;12.17;56.73
84067;SHT35;74151;52.134;5.500;2024-03-02T13:14:10;12.17;57.73
84067;SHT35;74151;52.134;5.500;2024-03-02T13:16:42;12.15;58.93
84067;SHT35;74151;52.134;5.500;2024-03-02T13:19:18;12.11;58.95
84067;SHT35;74151;52.134;5.500;2024-03-02T13:21:52;12.09;57.75
84067;SHT35;74151;52.134;5.500;2024-03-02T13:24:23;12.10;59.03
84067;SHT35;74151;52.134;5.500;2024-03-02T13:26:59;12.11;59.09
84067;SHT35;74151;52.134;5.500;2024-03-02T13:29:33;12.15;57.85
84067;SHT35;74151;52.134;5.500;2024-03-02T13:32:04;12.15;58.04
84067;SHT35;74151;52.134;5.500;2024-03-02T13:34:41;12.15;57.87
84067;SHT35;74151;52.134;5.500;2024-03-02T13:37:14;12.15;57.90
84067;SHT35;74151;52.134;5.500;2024-03-02T13:39:48;12.14;57.33
84067;SHT35;74151;52.134;5.500;2024-03-02T13:42:21;12.09;58.15
84067;SHT35;74151;52.134;5.500;2024-03-02T13:44:55;12.04;56.60
84067;SHT35;74151;52.134;5.500;2024-03-02T13:47:29;12.05;56.60
84067;SHT35;74151;52.134;5.500;2024-03-02T13:50:00;12.02;56.97
84067;SHT35;74151;52.134;5.500;2024-03-02T13:52:33;12.02;59.32
84067;SHT35;74151;52.134;5.500;2024-03-02T13:55:07;12.02;58.34
84067;SHT35;74151;52.134;5.500;2024-03-02T13:57:41;11.91;56.72
84067;SHT35;74151;52.134;5.500;2024-03-02T14:00:12;11.86;56.98
84067;SHT35;74151;52.134;5.500;2024-03-02T14:02:49;11.80;57.07
84067;SHT35;74151;52.134;5.500;2024-03-02T14:05:21;11.79;58.49
84067;SHT35;74151;52.134;5.500;2024-03-02T14:07:52;11.85;57.85
84067;SHT35;74151;52.134;5.500;2024-03-02T14:10:28;11.90;57.14
84067;SHT35;74151;52.134;5.500;2024-03-02T14:13:04;11.94;59.34
84067;SHT35;74151;52.134;5.500;2024-03-02T14:15:40;11.95;58.63
84067;SHT35;74151;52.134;5.500;2024-03-02T14:18:11;11.88;57.67
84067;SHT35;74151;52.134;5.500;2024-03-02T14:20:42;11.85;59.48
84067;SHT35;74151;52.134;5.500;2024-03-02T14:23:16;11.85;60.49
84067;SHT35;74151;52.134;5.500;2024-03-02T14:25:50;11.94;60.90
84067;SHT35;74151;52.134;5.500;2024-03-02T14:28:21;12.08;59.73
84067;SHT35;74151;52.134;5.500;2024-03-02T14:31:13;12.24;58.71
84067;SHT35;74151;52.134;5.500;2024-03-02T14:33:44;12.44;59.55
84067;SHT35;74151;52.134;5.500;2024-03-02T14:36:16;12.62;59.50
84067;SHT35;74151;52.134;5.500;2024-03-02T14:38:52;12.75;58.98
84067;SHT35;74151;52.134;5.500;2024-03-02T14:41:23;12.86;57.54
84067;SHT35;74151;52.134;5.500;2024-03-02T14:43:55;12.95;58.98
84067;SHT35;74151;52.134;5.500;2024-03-02T14:46:31;13.01;56.96
84067;SHT35;74151;52.134;5.500;2024-03-02T14:49:07;13.07;56.92
84067;SHT35;74151;52.134;5.500;2024-03-02T14:51:41;13.03;56.25
84067;SHT35;74151;52.134;5.500;2024-03-02T14:54:12;12.95;57.04
84067;SHT35;74151;52.134;5.500;2024-03-02T14:56:44;12.91;57.75
84067;SHT35;74151;52.134;5.500;2024-03-02T14:59:18;12.90;57.61
84067;SHT35;74151;52.134;5.500;2024-03-02T15:01:49;12.90;58.09
84067;SHT35;74151;52.134;5.500;2024-03-02T15:04:23;12.88;56.96
84067;SHT35;74151;52.134;5.500;2024-03-02T15:06:58;12.88;57.52
84067;SHT35;74151;52.134;5.500;2024-03-02T15:09:29;12.85;59.42
84067;SHT35;74151;52.134;5.500;2024-03-02T15:12:00;12.86;58.38
84067;SHT35;74151;52.134;5.500;2024-03-02T15:14:32;12.84;58.02
84067;SHT35;74151;52.134;5.500;2024-03-02T15:17:05;12.75;57.46
84067;SHT35;74151;52.134;5.500;2024-03-02T15:19:41;12.70;57.76
84067;SHT35;74151;52.134;5.500;2024-03-02T15:22:17;12.66;57.73
84067;SHT35;74151;52.134;5.500;2024-03-02T15:24:53;12.60;57.41
84067;SHT35;74151;52.134;5.500;2024-03-02T15:27:27;12.55;56.72
84067;SHT35;74151;52.134;5.500;2024-03-02T15:30:03;12.47;56.76
84067;SHT35;74151;52.134;5.500;2024-03-02T15:32:35;12.43;58.86
84067;SHT35;74151;52.134;5.500;2024-03-02T15:35:09;12.33;57.25
84067;SHT35;74151;52.134;5.500;2024-03-02T15:37:45;12.28;58.18
84067;SHT35;74151;52.134;5.500;2024-03-02T15:40:18;12.25;58.68
84067;SHT35;74151;52.134;5.500;2024-03-02T15:42:50;12.24;58.57
84067;SHT35;74151;52.134;5.500;2024-03-02T15:45:25;12.22;59.84
84067;SHT35;74151;52.134;5.500;2024-03-02T15:48:02;12.21;59.33
84067;SHT35;74151;52.134;5.500;2024-03-02T15:50:34;12.25;61.23
84067;SHT35;74151;52.134;5.500;2024-03-02T15:53:06;12.28;59.96
84067;SHT35;74151;52.134;5.500;2024-03-02T15:55:42;12.28;59.63
84067;SHT35;74151;52.134;5.500;2024-03-02T15:58:13;12.24;60.78
84067;SHT35;74151;52.134;5.500;2024-03-02T16:00:44;12.20;61.50
84067;SHT35;74151;52.134;5.500;2024-03-02T16:03:18;12.17;61.83
84067;SHT35;74151;52.134;5.500;2024-03-02T16:05:54;12.14;61.80
84067;SHT35;74151;52.134;5.500;2024-03-02T16:08:28;12.09;61.63
84067;SHT35;74151;52.134;5.500;2024-03-02T16:11:01;12.03;61.83
84067;SHT35;74151;52.134;5.500;2024-03-02T16:13:34;11.98;62.38
84067;SHT35;74151;52.134;5.500;2024-03-02T16:16:10;11.95;62.64
84067;SHT35;74151;52.134;5.500;2024-03-02T16:18:46;11.93;62.92
84067;SHT35;74151;52.134;5.500;2024-03-02T16:21:22;11.91;63.43
84067;SHT35;74151;52.134;5.500;2024-03-02T16:23:56;11.89;63.82
84067;SHT35;74151;52.134;5.500;2024-03-02T16:26:30;11.87;63.39
84067;SHT35;74151;52.134;5.500;2024-03-02T16:29:05;11.85;63.73
84067;SHT35;74151;52.134;5.500;2024-03-02T16:31:41;11.82;63.98
84067;SHT35;74151;52.134;5.500;2024-03-02T16:34:17;11.78;63.80